Time;durP1;ratioP1;P1;durP2;ratioP2;P2;SDS_P1;SDS_P2;PMS_P1;PMS_P2;Temp;Humidity;BMP_temperature;BMP_pressure;BME280_temperature;BME280_humidity;BME280_pressure;Samples;Min_cycle;Max_cycle;Signal;HPM_P1;HPM_P2
2021/09/05 00:00:55;;;;;;;20.05;7.20;;;14.90;99.90;;;;;;5035840;28;20060;-58
2021/09/05 00:03:21;;;;;;;19.25;7.57;;;14.90;99.90;;;;;;5050803;28;20033;-59
2021/09/05 00:05:46;;;;;;;16.15;6.93;;;14.90;99.90;;;;;;5050010;28;20487;-58
2021/09/05 00:08:12;;;;;;;15.80;7.03;;;14.90;99.90;;;;;;5050773;28;20028;-60
2021/09/05 00:10:38;;;;;;;22.45;7.55;;;14.80;99.90;;;;;;5038712;28;20036;-60
2021/09/05 00:13:04;;;;;;;19.20;6.88;;;14.90;99.90;;;;;;5047800;28;20021;-58
2021/09/05 00:15:29;;;;;;;19.73;6.78;;;14.80;99.90;;;;;;5054029;28;20565;-59
2021/09/05 00:17:55;;;;;;;16.55;7.03;;;14.80;99.90;;;;;;5054518;28;20048;-59
2021/09/05 00:20:21;;;;;;;15.00;7.38;;;14.80;99.90;;;;;;5046643;28;20055;-61
2021/09/05 00:22:46;;;;;;;14.38;6.53;;;14.80;99.90;;;;;;5048601;28;20037;-59
2021/09/05 00:25:12;;;;;;;14.65;7.20;;;14.90;99.90;;;;;;5040386;28;20119;-60
2021/09/05 00:27:39;;;;;;;20.33;7.75;;;14.90;99.90;;;;;;5053703;28;20480;-59
2021/09/05 00:30:06;;;;;;;14.80;7.28;;;14.80;99.90;;;;;;5054272;28;20041;-60
2021/09/05 00:32:33;;;;;;;14.23;6.55;;;14.80;99.90;;;;;;5052380;28;20155;-58
2021/09/05 00:34:58;;;;;;;18.23;6.68;;;14.80;99.90;;;;;;5053137;28;20082;-59
2021/09/05 00:37:24;;;;;;;16.73;7.22;;;14.70;99.90;;;;;;5054057;28;20406;-59
2021/09/05 00:39:50;;;;;;;14.65;7.18;;;14.80;99.90;;;;;;5054090;28;20051;-59
2021/09/05 00:42:23;;;;;;;18.63;7.28;;;14.80;99.90;;;;;;5041621;28;20415;-62
2021/09/05 00:44:49;;;;;;;20.35;6.78;;;14.70;99.90;;;;;;5054514;28;20055;-60
2021/09/05 00:47:14;;;;;;;14.93;7.05;;;14.70;99.90;;;;;;5053099;28;20383;-60
2021/09/05 00:49:40;;;;;;;14.48;6.75;;;14.70;99.90;;;;;;5054371;28;20049;-60
2021/09/05 00:52:06;;;;;;;16.85;7.15;;;14.70;99.90;;;;;;5053450;28;20040;-60
2021/09/05 00:54:32;;;;;;;15.85;6.82;;;14.70;99.90;;;;;;5053886;28;20025;-59
2021/09/05 00:56:58;;;;;;;16.13;6.47;;;14.60;99.90;;;;;;5053364;28;20051;-60
2021/09/05 00:59:24;;;;;;;20.40;6.97;;;14.60;99.90;;;;;;5054038;28;20029;-60
2021/09/05 01:01:49;;;;;;;14.63;7.15;;;14.50;99.90;;;;;;5051770;28;20071;-59
2021/09/05 01:04:15;;;;;;;19.77;7.32;;;14.60;99.90;;;;;;5053790;28;20065;-60
2021/09/05 01:06:41;;;;;;;16.27;7.35;;;14.50;99.90;;;;;;5053323;28;20013;-60
2021/09/05 01:09:08;;;;;;;21.23;6.68;;;14.50;99.90;;;;;;5054344;28;20044;-59
2021/09/05 01:11:35;;;;;;;14.60;6.88;;;14.50;99.90;;;;;;5038857;28;20479;-60
2021/09/05 01:14:04;;;;;;;17.05;7.10;;;14.50;99.90;;;;;;5053954;28;20040;-60
2021/09/05 01:16:38;;;;;;;16.30;7.28;;;14.50;99.90;;;;;;5053029;28;20039;-61
2021/09/05 01:19:05;;;;;;;14.25;6.90;;;14.50;99.90;;;;;;5054019;28;20108;-60
2021/09/05 01:21:31;;;;;;;23.38;7.65;;;14.50;99.90;;;;;;5052845;28;20391;-60
2021/09/05 01:23:57;;;;;;;15.77;7.45;;;14.50;99.90;;;;;;5053600;28;20029;-62
2021/09/05 01:26:25;;;;;;;16.90;6.90;;;14.50;99.90;;;;;;5084788;28;20033;-60
2021/09/05 01:28:53;;;;;;;18.60;7.45;;;14.50;99.90;;;;;;5053767;28;20060;-60
2021/09/05 01:31:19;;;;;;;18.33;7.45;;;14.40;99.90;;;;;;5053039;28;20112;-61
2021/09/05 01:33:47;;;;;;;16.83;7.03;;;14.40;99.90;;;;;;5047463;28;20053;-61
2021/09/05 01:36:12;;;;;;;12.10;6.90;;;14.40;99.90;;;;;;5037133;28;20037;-61
2021/09/05 01:38:41;;;;;;;17.38;7.18;;;14.40;99.90;;;;;;5031607;28;20045;-61
2021/09/05 01:41:06;;;;;;;12.55;6.60;;;14.40;99.90;;;;;;5042683;28;20479;-60
2021/09/05 01:43:32;;;;;;;16.88;6.47;;;14.40;99.90;;;;;;5052685;28;20029;-61
2021/09/05 01:45:58;;;;;;;15.05;6.65;;;14.40;99.90;;;;;;5051508;28;20055;-59
2021/09/05 01:48:23;;;;;;;14.93;6.70;;;14.40;99.90;;;;;;5052913;28;20040;-61
2021/09/05 01:50:49;;;;;;;16.40;6.80;;;14.30;99.90;;;;;;5052597;28;20024;-60
2021/09/05 01:53:15;;;;;;;13.60;6.80;;;14.30;99.90;;;;;;5052981;28;20483;-60
2021/09/05 01:55:41;;;;;;;17.30;7.13;;;14.30;99.90;;;;;;5052805;28;20029;-59
2021/09/05 01:58:06;;;;;;;17.90;6.63;;;14.30;99.90;;;;;;5052427;28;20059;-60
2021/09/05 02:00:32;;;;;;;13.25;6.68;;;14.30;99.90;;;;;;5053006;28;20514;-60
2021/09/05 02:02:58;;;;;;;14.88;6.57;;;14.30;99.90;;;;;;5045845;28;20507;-59
2021/09/05 02:05:23;;;;;;;16.48;6.65;;;14.20;99.90;;;;;;5042736;28;20033;-59
2021/09/05 02:07:49;;;;;;;16.80;6.80;;;14.10;99.90;;;;;;5051950;28;20025;-62
2021/09/05 02:10:15;;;;;;;21.27;6.43;;;14.20;99.90;;;;;;5052763;28;20426;-61
2021/09/05 02:12:40;;;;;;;17.77;6.68;;;14.10;99.90;;;;;;5051508;28;20035;-61
2021/09/05 02:15:07;;;;;;;19.85;7.20;;;14.10;99.90;;;;;;5052828;28;20077;-60
2021/09/05 02:17:32;;;;;;;15.13;6.72;;;14.10;99.90;;;;;;5051702;28;20112;-61
2021/09/05 02:19:58;;;;;;;18.70;6.93;;;14.20;99.90;;;;;;5052410;28;20112;-60
2021/09/05 02:22:24;;;;;;;17.80;7.40;;;14.20;99.90;;;;;;5051893;28;20037;-60
2021/09/05 02:24:50;;;;;;;16.55;6.53;;;14.20;99.90;;;;;;5052306;28;20033;-63
2021/09/05 02:27:16;;;;;;;19.73;7.40;;;14.20;99.90;;;;;;5051610;28;20082;-61
2021/09/05 02:29:41;;;;;;;14.48;7.15;;;14.20;99.90;;;;;;5043226;28;20408;-61
2021/09/05 02:32:07;;;;;;;17.33;6.75;;;14.30;99.90;;;;;;5032180;28;20049;-59
2021/09/05 02:34:33;;;;;;;22.50;7.00;;;14.30;99.90;;;;;;5032356;28;20391;-61
2021/09/05 02:36:59;;;;;;;16.52;6.32;;;14.30;99.90;;;;;;5030875;28;20022;-59
2021/09/05 02:39:25;;;;;;;15.55;6.65;;;14.30;99.90;;;;;;5032478;28;20029;-62
2021/09/05 02:41:50;;;;;;;13.45;6.70;;;14.30;99.90;;;;;;5031276;28;20039;-62
2021/09/05 02:44:16;;;;;;;17.20;6.72;;;14.40;99.90;;;;;;5032200;28;20034;-60
2021/09/05 02:46:41;;;;;;;18.30;6.63;;;14.40;99.90;;;;;;5031890;28;20091;-60
2021/09/05 02:49:07;;;;;;;17.73;6.30;;;14.40;99.90;;;;;;5051199;28;20112;-60
2021/09/05 02:51:33;;;;;;;16.00;6.68;;;14.50;99.90;;;;;;5051491;28;20033;-59
2021/09/05 02:53:59;;;;;;;20.38;7.10;;;14.50;99.90;;;;;;5048592;28;20021;-59
2021/09/05 02:56:24;;;;;;;17.02;6.20;;;14.60;99.90;;;;;;5040776;28;20067;-61
2021/09/05 02:58:50;;;;;;;23.65;7.45;;;14.60;99.90;;;;;;5051740;28;20021;-60
2021/09/05 03:01:15;;;;;;;29.33;7.97;;;14.70;99.90;;;;;;5051593;28;20021;-60
2021/09/05 03:03:41;;;;;;;20.95;6.75;;;14.80;99.90;;;;;;5051467;28;20432;-60
2021/09/05 03:06:07;;;;;;;24.02;7.45;;;14.80;99.90;;;;;;5051755;28;20025;-58
2021/09/05 03:08:32;;;;;;;27.40;7.15;;;14.80;99.90;;;;;;5050875;28;20043;-60
2021/09/05 03:10:58;;;;;;;20.38;6.57;;;14.90;99.90;;;;;;5048413;28;20033;-59
2021/09/05 03:13:24;;;;;;;26.52;7.70;;;15.00;99.90;;;;;;5040041;28;20032;-59
2021/09/05 03:15:50;;;;;;;22.67;7.85;;;15.00;99.90;;;;;;5051492;28;20029;-60
2021/09/05 03:18:15;;;;;;;22.60;6.75;;;15.10;99.90;;;;;;5050544;28;20037;-60
2021/09/05 03:20:41;;;;;;;21.77;7.00;;;15.10;99.90;;;;;;5050392;28;20087;-60
2021/09/05 03:23:07;;;;;;;22.67;7.30;;;15.10;99.90;;;;;;5050578;28;20071;-59
2021/09/05 03:25:32;;;;;;;22.55;7.03;;;15.10;99.90;;;;;;5051307;28;20417;-61
2021/09/05 03:27:58;;;;;;;21.08;7.10;;;15.10;99.90;;;;;;5050170;28;20024;-60
2021/09/05 03:30:24;;;;;;;26.25;8.20;;;15.10;99.90;;;;;;5051554;28;20032;-60
2021/09/05 03:32:49;;;;;;;25.35;7.93;;;15.00;99.90;;;;;;5050336;28;20033;-61
2021/09/05 03:35:15;;;;;;;24.30;7.35;;;15.00;99.90;;;;;;5051182;28;20021;-58
2021/09/05 03:37:41;;;;;;;29.33;8.15;;;15.00;99.90;;;;;;5050545;28;20032;-61
2021/09/05 03:40:07;;;;;;;23.05;7.55;;;15.10;99.90;;;;;;5050950;28;20457;-61
2021/09/05 03:42:33;;;;;;;26.63;7.13;;;15.00;99.90;;;;;;5041336;28;20032;-61
2021/09/05 03:44:58;;;;;;;18.55;6.85;;;15.00;99.90;;;;;;5051060;28;20410;-61
2021/09/05 03:47:24;;;;;;;23.80;7.22;;;15.00;99.90;;;;;;5044417;28;20037;-61
2021/09/05 03:49:50;;;;;;;21.75;7.20;;;15.00;99.90;;;;;;5050210;28;20108;-60
2021/09/05 03:52:17;;;;;;;19.27;7.35;;;15.00;99.90;;;;;;5050132;28;20105;-59
2021/09/05 03:54:43;;;;;;;20.45;7.20;;;15.00;99.90;;;;;;5051321;28;20040;-61
2021/09/05 03:57:09;;;;;;;16.45;7.30;;;15.00;99.90;;;;;;5050143;28;20383;-61
2021/09/05 03:59:34;;;;;;;22.92;7.68;;;14.90;99.90;;;;;;5050729;28;20360;-60
2021/09/05 04:02:00;;;;;;;26.33;7.68;;;14.90;99.90;;;;;;5050346;28;20449;-60
2021/09/05 04:04:26;;;;;;;22.45;7.15;;;14.90;99.90;;;;;;5050428;28;20049;-60
2021/09/05 04:07:01;;;;;;;22.67;7.72;;;15.00;99.90;;;;;;5050244;28;20060;-60
2021/09/05 04:12:18;;;;;;;26.17;8.20;;;14.90;99.90;;;;;;5050413;28;20103;-59
2021/09/05 04:14:44;;;;;;;19.70;7.30;;;14.90;99.90;;;;;;5044832;28;20064;-60
2021/09/05 04:17:10;;;;;;;17.83;7.40;;;14.90;99.90;;;;;;5041359;28;20479;-59
2021/09/05 04:19:35;;;;;;;25.90;7.70;;;14.90;99.90;;;;;;5082455;28;20543;-59
2021/09/05 04:22:03;;;;;;;22.52;7.68;;;14.80;99.90;;;;;;5049027;28;20033;-59
2021/09/05 04:24:29;;;;;;;24.52;7.65;;;14.80;99.90;;;;;;5050378;28;20055;-61
2021/09/05 04:26:54;;;;;;;26.45;7.90;;;14.80;99.90;;;;;;5049168;28;20033;-60
2021/09/05 04:29:20;;;;;;;21.38;7.32;;;14.80;99.90;;;;;;5050244;28;20558;-61
2021/09/05 04:31:47;;;;;;;23.30;7.40;;;14.80;99.90;;;;;;5044564;28;20029;-60
2021/09/05 04:34:12;;;;;;;23.15;8.15;;;14.80;99.90;;;;;;5042364;28;20044;-60
2021/09/05 04:36:38;;;;;;;23.80;7.60;;;14.80;99.90;;;;;;5050709;28;20029;-61
2021/09/05 04:39:05;;;;;;;23.65;7.10;;;14.80;99.90;;;;;;5050013;28;20032;-59
2021/09/05 04:41:31;;;;;;;22.38;7.72;;;14.80;99.90;;;;;;5041475;28;20040;-60
2021/09/05 04:43:57;;;;;;;17.90;7.85;;;14.70;99.90;;;;;;5049836;28;20037;-61
2021/09/05 04:46:22;;;;;;;21.23;7.70;;;14.70;99.90;;;;;;5050468;28;20033;-60
2021/09/05 04:48:48;;;;;;;22.13;7.47;;;14.60;99.90;;;;;;5049731;28;21445;-60
2021/09/05 04:51:14;;;;;;;18.80;7.97;;;14.60;99.90;;;;;;5050642;28;20044;-60
2021/09/05 04:53:40;;;;;;;14.95;7.80;;;14.60;99.90;;;;;;5035498;28;20117;-61
2021/09/05 04:56:06;;;;;;;17.55;7.75;;;14.60;99.90;;;;;;5044064;28;20025;-61
2021/09/05 04:58:32;;;;;;;15.18;7.57;;;14.60;99.90;;;;;;5042654;28;20066;-60
2021/09/05 05:00:57;;;;;;;18.52;7.75;;;14.60;99.90;;;;;;5052652;28;20104;-59
2021/09/05 05:03:23;;;;;;;17.48;7.45;;;14.60;99.90;;;;;;5053318;28;20081;-60
2021/09/05 05:05:49;;;;;;;14.38;7.88;;;14.60;99.90;;;;;;5053987;28;21875;-59
2021/09/05 05:08:14;;;;;;;17.83;7.93;;;14.50;99.90;;;;;;5052882;28;20155;-60
2021/09/05 05:10:40;;;;;;;18.70;7.50;;;14.40;99.90;;;;;;5053925;28;20029;-60
2021/09/05 05:13:06;;;;;;;20.15;8.57;;;14.40;99.90;;;;;;5053130;28;20033;-60
2021/09/05 05:15:31;;;;;;;23.90;8.63;;;14.40;99.90;;;;;;5053774;28;20041;-59
2021/09/05 05:17:57;;;;;;;16.48;7.82;;;14.40;99.90;;;;;;5052998;28;20043;-60
2021/09/05 05:20:23;;;;;;;18.83;8.13;;;14.40;99.90;;;;;;5053945;28;20126;-60
2021/09/05 05:22:48;;;;;;;22.10;7.90;;;14.50;99.90;;;;;;5039076;28;20091;-61
2021/09/05 05:25:14;;;;;;;21.95;7.82;;;14.50;99.90;;;;;;5053602;28;20029;-60
2021/09/05 05:27:40;;;;;;;21.33;8.95;;;14.50;99.90;;;;;;5052818;28;20494;-60
2021/09/05 05:30:06;;;;;;;33.88;9.52;;;14.60;99.90;;;;;;5053425;28;20041;-59
2021/09/05 05:32:32;;;;;;;26.45;8.50;;;14.70;99.90;;;;;;5040273;28;20033;-59
2021/09/05 05:34:57;;;;;;;20.13;7.95;;;14.70;99.90;;;;;;5051893;28;20047;-60
2021/09/05 05:37:23;;;;;;;22.13;8.73;;;14.60;99.90;;;;;;5053111;28;20230;-62
2021/09/05 05:39:49;;;;;;;19.40;9.32;;;14.60;99.90;;;;;;5053013;28;20032;-60
2021/09/05 05:42:15;;;;;;;20.08;8.45;;;14.50;99.90;;;;;;5044170;28;20041;-59
2021/09/05 05:44:40;;;;;;;23.58;9.15;;;14.50;99.90;;;;;;5052027;28;20029;-62
2021/09/05 05:47:06;;;;;;;21.35;9.15;;;14.40;99.90;;;;;;5052123;28;20454;-63
2021/09/05 05:49:34;;;;;;;22.73;9.00;;;14.40;99.90;;;;;;5052299;28;20376;-60
2021/09/05 05:52:00;;;;;;;23.20;9.15;;;14.40;99.90;;;;;;5053099;28;20029;-60
2021/09/05 05:54:26;;;;;;;21.38;8.60;;;14.40;99.90;;;;;;5052511;28;20075;-61
2021/09/05 05:56:52;;;;;;;22.17;8.50;;;14.50;99.90;;;;;;5039587;28;20035;-65
2021/09/05 05:59:17;;;;;;;26.52;9.25;;;14.60;99.90;;;;;;5051184;28;20120;-63
2021/09/05 06:01:43;;;;;;;21.55;8.70;;;14.60;99.90;;;;;;5053087;28;20104;-60
2021/09/05 06:04:09;;;;;;;19.60;8.45;;;14.60;99.90;;;;;;5048977;28;20035;-62
2021/09/05 06:06:36;;;;;;;18.65;8.80;;;14.60;99.90;;;;;;5040635;28;20036;-60
2021/09/05 06:09:01;;;;;;;22.60;8.82;;;14.50;99.90;;;;;;5052090;28;20047;-62
2021/09/05 06:11:28;;;;;;;21.38;10.43;;;14.50;99.90;;;;;;5052055;28;20041;-60
2021/09/05 06:13:54;;;;;;;21.63;9.27;;;14.50;99.90;;;;;;5051991;28;20060;-60
2021/09/05 06:16:20;;;;;;;26.05;9.48;;;14.70;99.90;;;;;;5052567;28;20021;-59
2021/09/05 06:18:46;;;;;;;23.70;9.10;;;14.80;99.90;;;;;;5050663;28;20060;-60
2021/09/05 06:21:12;;;;;;;19.92;8.93;;;14.80;99.90;;;;;;5052286;28;20131;-59
2021/09/05 06:23:38;;;;;;;24.85;9.20;;;14.80;99.90;;;;;;5051668;28;20033;-59
2021/09/05 06:26:04;;;;;;;28.08;9.35;;;14.80;99.90;;;;;;5052400;28;20178;-58
2021/09/05 06:28:30;;;;;;;25.85;8.93;;;14.70;99.90;;;;;;5051803;28;20102;-63
2021/09/05 06:30:56;;;;;;;24.65;8.65;;;14.80;99.90;;;;;;5052447;28;20021;-59
2021/09/05 06:33:21;;;;;;;24.80;8.52;;;14.80;99.90;;;;;;5051604;28;20035;-60
2021/09/05 06:35:47;;;;;;;20.50;8.82;;;14.80;99.90;;;;;;5052620;28;20037;-61
2021/09/05 06:38:12;;;;;;;25.25;8.45;;;14.80;99.90;;;;;;5051484;28;20021;-59
2021/09/05 06:40:39;;;;;;;20.10;9.02;;;14.80;99.90;;;;;;5047682;28;20395;-59
2021/09/05 06:43:05;;;;;;;22.40;9.05;;;14.90;99.90;;;;;;5046921;28;20410;-58
2021/09/05 06:45:31;;;;;;;22.23;8.40;;;14.90;99.90;;;;;;5051993;28;20067;-59
2021/09/05 06:47:58;;;;;;;18.73;8.75;;;14.90;99.90;;;;;;5051686;28;20467;-58
2021/09/05 06:50:23;;;;;;;19.30;9.25;;;14.90;99.90;;;;;;5051649;28;20386;-59
2021/09/05 06:52:49;;;;;;;16.42;8.88;;;14.90;99.90;;;;;;5051572;28;20029;-60
2021/09/05 06:55:15;;;;;;;20.33;9.35;;;15.00;99.90;;;;;;5051388;28;20418;-60
2021/09/05 06:57:41;;;;;;;21.75;10.10;;;15.10;99.90;;;;;;5051446;28;20426;-59
2021/09/05 07:00:07;;;;;;;23.83;9.20;;;15.30;99.90;;;;;;5051153;28;20037;-62
2021/09/05 07:02:33;;;;;;;23.17;9.27;;;15.40;99.90;;;;;;5051673;28;20041;-61
2021/09/05 07:04:59;;;;;;;19.88;9.63;;;15.50;99.90;;;;;;5051020;28;20540;-60
2021/09/05 07:07:25;;;;;;;28.73;10.23;;;15.60;99.90;;;;;;5051685;28;20029;-60
2021/09/05 07:09:50;;;;;;;23.95;9.45;;;15.80;99.90;;;;;;5050956;28;20040;-60
2021/09/05 07:12:16;;;;;;;33.03;9.65;;;16.00;99.90;;;;;;5051640;28;20399;-61
2021/09/05 07:14:42;;;;;;;27.02;9.90;;;16.10;99.90;;;;;;5050687;28;20090;-61
2021/09/05 07:17:07;;;;;;;29.40;10.80;;;16.30;99.90;;;;;;5051636;28;20116;-61
2021/09/05 07:19:33;;;;;;;34.15;11.00;;;16.30;99.90;;;;;;5050322;28;20070;-60
2021/09/05 07:21:59;;;;;;;42.60;11.32;;;16.40;99.90;;;;;;5051236;28;20466;-59
2021/09/05 07:24:24;;;;;;;30.75;10.77;;;16.50;99.90;;;;;;5050475;28;20037;-61
2021/09/05 07:26:50;;;;;;;31.45;10.90;;;16.60;99.90;;;;;;5051175;28;20074;-60
2021/09/05 07:29:17;;;;;;;28.58;11.07;;;16.60;99.90;;;;;;5050340;28;20051;-61
2021/09/05 07:31:44;;;;;;;25.45;10.45;;;16.70;99.90;;;;;;5045371;28;20530;-59
2021/09/05 07:34:09;;;;;;;34.95;12.32;;;16.80;99.90;;;;;;5042728;28;20090;-59
2021/09/05 07:36:36;;;;;;;30.10;11.48;;;17.00;99.90;;;;;;5051370;28;20017;-60
2021/09/05 07:39:03;;;;;;;32.83;12.07;;;17.10;99.90;;;;;;5049103;28;20115;-59
2021/09/05 07:41:29;;;;;;;42.08;12.80;;;17.20;99.90;;;;;;5041966;28;20103;-59
2021/09/05 07:43:54;;;;;;;35.00;12.98;;;17.20;99.90;;;;;;5050127;28;20071;-59
2021/09/05 07:46:20;;;;;;;31.13;11.85;;;17.40;99.90;;;;;;5050949;28;20381;-60
2021/09/05 07:48:46;;;;;;;28.75;12.10;;;17.60;99.90;;;;;;5047753;28;20033;-59
2021/09/05 07:51:12;;;;;;;39.70;12.65;;;17.80;99.90;;;;;;5030677;28;20032;-59
2021/09/05 07:53:38;;;;;;;38.38;11.93;;;18.00;99.90;;;;;;5044698;28;20036;-61
2021/09/05 07:56:04;;;;;;;35.05;12.38;;;18.20;99.90;;;;;;5044312;28;20036;-58
2021/09/05 07:58:29;;;;;;;39.47;12.07;;;18.40;99.90;;;;;;5043380;28;20045;-60
2021/09/05 08:00:56;;;;;;;31.90;11.90;;;18.40;99.90;;;;;;5050284;28;20033;-59
2021/09/05 08:03:21;;;;;;;38.25;12.18;;;18.70;99.90;;;;;;5050416;28;20056;-60
2021/09/05 08:05:47;;;;;;;30.92;12.25;;;18.80;99.90;;;;;;5050384;28;20025;-60
2021/09/05 08:08:13;;;;;;;35.85;12.38;;;18.90;99.90;;;;;;5050711;28;20032;-59
2021/09/05 08:10:39;;;;;;;34.25;13.20;;;18.80;99.90;;;;;;5049718;28;20447;-58
2021/09/05 08:13:05;;;;;;;32.97;13.15;;;18.80;99.90;;;;;;5050854;28;20036;-60
2021/09/05 08:15:31;;;;;;;27.10;12.50;;;18.90;99.90;;;;;;5049962;28;20039;-60
2021/09/05 08:17:56;;;;;;;32.45;14.38;;;19.10;99.90;;;;;;5050636;28;20025;-61
2021/09/05 08:20:22;;;;;;;31.73;13.52;;;19.40;99.90;;;;;;5037458;28;20527;-60
2021/09/05 08:22:48;;;;;;;38.15;14.00;;;19.60;99.90;;;;;;5034041;28;20049;-60
2021/09/05 08:25:14;;;;;;;28.25;13.23;;;19.70;99.90;;;;;;5047713;28;20037;-60
2021/09/05 08:27:40;;;;;;;37.38;13.93;;;19.90;99.90;;;;;;5043362;28;20426;-60
2021/09/05 08:30:06;;;;;;;28.48;13.40;;;20.00;99.90;;;;;;5036746;28;20057;-58
2021/09/05 08:32:32;;;;;;;31.27;13.77;;;20.30;99.90;;;;;;5050820;28;20079;-58
2021/09/05 08:34:58;;;;;;;40.17;15.00;;;20.50;99.90;;;;;;5050555;28;20017;-60
2021/09/05 08:37:23;;;;;;;30.88;14.18;;;20.80;99.90;;;;;;5052879;28;20041;-59
2021/09/05 08:39:50;;;;;;;27.48;14.02;;;21.00;99.90;;;;;;5036173;28;20063;-59
2021/09/05 08:42:16;;;;;;;36.08;15.43;;;21.20;99.90;;;;;;5054122;28;20036;-60
2021/09/05 08:44:43;;;;;;;28.45;14.07;;;21.50;99.90;;;;;;5053289;28;20395;-59
2021/09/05 08:47:09;;;;;;;29.55;13.15;;;21.50;99.90;;;;;;5054491;28;20540;-58
2021/09/05 08:49:36;;;;;;;30.23;13.13;;;21.60;99.90;;;;;;5052010;28;20450;-59
2021/09/05 08:52:04;;;;;;;29.23;13.30;;;21.50;99.90;;;;;;5054389;28;20033;-60
2021/09/05 08:54:31;;;;;;;29.55;13.50;;;21.80;99.90;;;;;;5053513;28;20479;-59
2021/09/05 08:56:57;;;;;;;25.75;13.15;;;22.00;99.90;;;;;;5053983;28;20060;-59
2021/09/05 08:59:23;;;;;;;27.50;13.57;;;21.80;99.90;;;;;;5053019;28;20029;-60
2021/09/05 09:02:02;;;;;;;28.15;14.13;;;21.60;99.90;;;;;;5054084;28;20491;-59
2021/09/05 09:04:39;;;;;;;26.98;14.82;;;21.40;99.90;;;;;;5053146;28;20112;-61
2021/09/05 09:07:16;;;;;;;32.35;15.43;;;21.20;99.90;;;;;;5054171;28;20096;-60
2021/09/05 09:09:56;;;;;;;34.33;15.07;;;21.20;99.90;;;;;;5053323;28;20087;-59
2021/09/05 09:12:46;;;;;;;32.13;15.90;;;21.20;99.90;;;;;;5053877;28;20112;-59
2021/09/05 09:15:22;;;;;;;30.50;15.75;;;21.10;99.90;;;;;;5050787;28;20557;-61
2021/09/05 09:18:00;;;;;;;30.45;16.02;;;21.50;99.90;;;;;;5053643;28;20025;-61
2021/09/05 09:20:39;;;;;;;26.67;14.73;;;21.50;99.90;;;;;;5053014;28;20036;-61
2021/09/05 09:23:06;;;;;;;30.27;15.18;;;21.60;99.90;;;;;;5053475;28;20525;-61
2021/09/05 09:25:32;;;;;;;34.08;16.77;;;21.50;99.90;;;;;;5052645;28;20040;-59
2021/09/05 09:27:57;;;;;;;27.70;15.57;;;21.50;99.90;;;;;;5053262;28;20025;-61
2021/09/05 09:30:34;;;;;;;37.13;15.68;;;21.50;99.90;;;;;;5052848;28;20044;-59
2021/09/05 09:32:59;;;;;;;27.77;15.50;;;21.70;99.90;;;;;;5051011;28;20123;-63
2021/09/05 09:35:25;;;;;;;33.13;15.82;;;21.70;99.90;;;;;;5041059;28;20112;-62
2021/09/05 09:37:51;;;;;;;30.77;15.02;;;21.80;99.90;;;;;;5052977;28;20056;-62
2021/09/05 09:40:24;;;;;;;27.67;14.43;;;21.70;99.90;;;;;;5038718;28;20110;-62
2021/09/05 09:42:50;;;;;;;29.23;15.27;;;21.70;99.90;;;;;;5037990;28;20033;-62
2021/09/05 09:45:17;;;;;;;27.55;16.02;;;21.80;99.90;;;;;;5050506;28;20037;-60
2021/09/05 09:47:45;;;;;;;34.03;16.63;;;21.90;99.90;;;;;;5051656;28;20079;-61
2021/09/05 09:50:13;;;;;;;32.40;17.23;;;21.80;99.90;;;;;;5067740;28;20028;-60
2021/09/05 09:52:39;;;;;;;34.67;17.05;;;21.60;99.90;;;;;;5053165;28;20024;-61
2021/09/05 09:55:05;;;;;;;34.35;18.10;;;21.70;99.90;;;;;;5052238;28;20032;-60
2021/09/05 09:57:31;;;;;;;26.33;16.60;;;21.70;99.90;;;;;;5052943;28;20024;-62
2021/09/05 09:59:57;;;;;;;32.55;17.55;;;21.80;99.90;;;;;;5052138;28;20395;-60
2021/09/05 10:02:26;;;;;;;33.30;18.33;;;21.90;99.90;;;;;;5052645;28;20162;-60
2021/09/05 10:04:54;;;;;;;35.22;17.58;;;21.90;99.90;;;;;;5051984;28;20028;-60
2021/09/05 10:07:23;;;;;;;29.60;17.33;;;22.10;99.90;;;;;;5052625;28;20044;-60
2021/09/05 10:09:50;;;;;;;35.10;17.40;;;22.20;99.90;;;;;;5052014;28;20021;-60
2021/09/05 10:12:18;;;;;;;29.95;15.85;;;22.10;99.90;;;;;;5052602;28;20025;-61
2021/09/05 10:14:52;;;;;;;27.65;15.88;;;22.30;99.90;;;;;;5049218;28;20037;-60
2021/09/05 10:17:20;;;;;;;29.85;16.17;;;22.40;99.90;;;;;;5052997;28;20822;-62
2021/09/05 10:19:47;;;;;;;31.88;17.55;;;22.30;99.90;;;;;;5050384;28;20044;-61
2021/09/05 10:22:15;;;;;;;28.23;17.00;;;22.40;99.90;;;;;;5052414;28;20112;-59
2021/09/05 10:24:48;;;;;;;27.52;15.90;;;22.50;99.90;;;;;;5050772;28;20096;-60
2021/09/05 10:27:15;;;;;;;34.45;17.00;;;22.50;99.90;;;;;;5052042;28;20039;-59
2021/09/05 10:30:09;;;;;;;32.83;18.75;;;22.60;99.90;;;;;;5048262;28;20042;-61
2021/09/05 10:32:45;;;;;;;32.25;20.25;;;22.60;99.90;;;;;;5045486;28;20032;-59
2021/09/05 10:35:26;;;;;;;36.40;19.92;;;22.50;99.90;;;;;;5051574;28;20021;-61
2021/09/05 10:38:21;;;;;;;36.58;19.88;;;22.40;99.90;;;;;;5052162;28;20039;-60
2021/09/05 10:40:59;;;;;;;27.37;19.00;;;22.70;99.90;;;;;;5051540;28;20060;-60
2021/09/05 10:43:48;;;;;;;27.40;17.40;;;22.90;99.90;;;;;;5051898;28;20290;-59
2021/09/05 10:46:20;;;;;;;29.23;18.40;;;23.10;99.90;;;;;;5051011;28;20091;-58
2021/09/05 10:48:55;;;;;;;30.48;18.45;;;23.20;99.90;;;;;;5052114;28;20075;-58
2021/09/05 10:51:27;;;;;;;30.95;17.60;;;23.20;99.90;;;;;;5051400;28;20056;-59
2021/09/05 10:53:59;;;;;;;28.05;17.35;;;23.30;99.90;;;;;;5051738;28;20068;-61
2021/09/05 10:56:38;;;;;;;26.85;16.60;;;23.50;99.90;;;;;;5050935;28;20071;-60
2021/09/05 10:59:16;;;;;;;41.67;17.98;;;23.50;99.90;;;;;;5050931;28;20036;-59
2021/09/05 11:01:57;;;;;;;28.77;17.05;;;23.40;99.90;;;;;;5050938;28;20070;-60
2021/09/05 11:04:25;;;;;;;27.58;17.73;;;23.40;99.90;;;;;;5051500;28;20037;-60
2021/09/05 11:07:06;;;;;;;31.08;18.23;;;23.30;99.90;;;;;;5051070;28;20372;-60
2021/09/05 11:09:31;;;;;;;28.10;18.00;;;23.20;99.90;;;;;;5037468;28;20053;-60
2021/09/05 11:12:00;;;;;;;31.35;17.63;;;23.20;99.90;;;;;;5051041;28;20467;-59
2021/09/05 11:14:40;;;;;;;32.08;17.75;;;23.20;99.90;;;;;;5048945;28;20032;-60
2021/09/05 11:17:09;;;;;;;28.80;17.92;;;23.30;99.90;;;;;;5051304;28;20083;-61
2021/09/05 11:19:43;;;;;;;32.40;19.25;;;23.30;99.90;;;;;;5036972;28;20033;-59
2021/09/05 11:22:10;;;;;;;;;;;23.20;99.90;;;;;;5050907;28;20033;-59
2021/09/05 11:24:37;;;;;;;25.92;16.13;;;23.20;99.90;;;;;;5050872;28;19918;-60
2021/09/05 11:27:05;;;;;;;31.10;17.50;;;23.30;99.90;;;;;;5049567;28;20391;-61
2021/09/05 11:29:31;;;;;;;29.05;18.40;;;23.40;99.90;;;;;;5036751;28;20049;-60
2021/09/05 11:32:01;;;;;;;31.15;17.85;;;23.50;99.90;;;;;;5050352;28;20509;-60
2021/09/05 11:34:27;;;;;;;30.92;17.90;;;23.60;99.90;;;;;;5051219;28;20033;-61
2021/09/05 11:36:53;;;;;;;33.47;17.27;;;23.60;99.90;;;;;;5050270;28;20037;-59
2021/09/05 11:39:19;;;;;;;29.42;16.73;;;23.80;99.90;;;;;;5051146;28;20376;-61
2021/09/05 11:41:50;;;;;;;27.27;16.85;;;23.90;99.90;;;;;;5050380;28;20060;-60
2021/09/05 11:44:35;;;;;;;30.38;16.25;;;23.80;99.90;;;;;;5030879;28;20452;-60
2021/09/05 11:47:14;;;;;;;30.83;17.00;;;23.90;99.90;;;;;;5045904;28;20041;-59
2021/09/05 11:49:51;;;;;;;28.65;14.98;;;23.80;99.90;;;;;;5051153;28;20059;-59
2021/09/05 11:52:31;;;;;;;27.17;16.48;;;23.80;99.90;;;;;;5047543;28;20127;-60
2021/09/05 11:55:05;;;;;;;25.75;15.15;;;23.90;99.90;;;;;;5041430;28;20033;-61
2021/09/05 11:57:33;;;;;;;28.77;16.65;;;24.00;99.90;;;;;;5050502;28;20037;-60
2021/09/05 12:00:01;;;;;;;28.42;14.70;;;24.10;99.90;;;;;;5050258;28;20040;-60
2021/09/05 12:02:35;;;;;;;31.55;16.05;;;24.20;99.90;;;;;;5050484;28;20041;-60
2021/09/05 12:05:01;;;;;;;30.38;15.32;;;24.20;99.90;;;;;;5050670;28;20382;-60
2021/09/05 12:07:32;;;;;;;30.50;15.70;;;24.10;99.90;;;;;;5050776;28;20029;-59
2021/09/05 12:10:14;;;;;;;26.92;14.95;;;24.10;99.90;;;;;;5049426;28;20024;-62
2021/09/05 12:12:41;;;;;;;26.60;15.60;;;24.20;99.90;;;;;;5050109;28;20493;-62
2021/09/05 12:15:13;;;;;;;27.77;14.88;;;24.30;99.90;;;;;;5047798;28;20021;-61
2021/09/05 12:17:43;;;;;;;23.48;14.85;;;24.40;99.90;;;;;;5050412;28;20121;-59
2021/09/05 12:20:09;;;;;;;19.63;12.95;;;24.50;99.90;;;;;;5049490;28;20074;-59
2021/09/05 12:22:47;;;;;;;27.58;14.68;;;24.80;99.90;;;;;;5049648;28;20082;-61
2021/09/05 12:25:17;;;;;;;25.13;15.02;;;24.80;99.90;;;;;;5038458;28;20355;-61
2021/09/05 12:27:54;;;;;;;24.55;14.55;;;24.70;99.90;;;;;;5050041;28;20087;-60
2021/09/05 12:30:26;;;;;;;26.33;14.18;;;24.60;99.90;;;;;;5041572;28;20046;-60
2021/09/05 12:33:19;;;;;;;24.80;14.30;;;24.50;99.90;;;;;;5045748;28;20037;-61
2021/09/05 12:36:05;;;;;;;23.50;15.02;;;24.50;99.90;;;;;;5049715;28;20505;-60
2021/09/05 12:38:35;;;;;;;27.27;14.98;;;24.60;99.90;;;;;;5050489;28;20045;-60